Time;durP1;ratioP1;P1;durP2;ratioP2;P2;SDS_P1;SDS_P2;PMS_P1;PMS_P2;Temp;Humidity;BMP_temperature;BMP_pressure;BME280_temperature;BME280_humidity;BME280_pressure;Samples;Min_cycle;Max_cycle;Signal;HPM_P1;HPM_P2
2023/12/15 00:01:19;;;;;;;20.00;12.30;;;3.00;99.90;;;;;;5075104;28;20170;-72
2023/12/15 00:03:45;;;;;;;26.63;13.90;;;3.00;99.90;;;;;;5070079;28;20170;-67
2023/12/15 00:06:11;;;;;;;20.23;13.67;;;3.00;99.90;;;;;;5072308;28;20269;-71
2023/12/15 00:08:37;;;;;;;17.57;13.50;;;3.00;99.90;;;;;;5068492;28;20642;-66
2023/12/15 00:11:03;;;;;;;19.90;13.00;;;3.00;99.90;;;;;;5054895;28;20163;-68
2023/12/15 00:13:29;;;;;;;22.17;12.50;;;3.00;99.90;;;;;;5054608;28;20172;-67
2023/12/15 00:15:54;;;;;;;23.93;14.17;;;3.00;99.90;;;;;;5053776;28;20867;-67
2023/12/15 00:18:21;;;;;;;18.47;13.23;;;3.00;99.90;;;;;;5057305;28;20662;-67
2023/12/15 00:20:47;;;;;;;22.20;13.37;;;3.00;99.90;;;;;;5074918;28;20387;-70
2023/12/15 00:23:13;;;;;;;23.63;13.40;;;3.00;99.90;;;;;;5066478;28;20432;-71
2023/12/15 00:25:38;;;;;;;24.27;13.17;;;3.10;99.90;;;;;;5073571;28;20816;-67
2023/12/15 00:28:04;;;;;;;18.30;11.87;;;3.10;99.90;;;;;;5072111;28;20452;-68
2023/12/15 00:30:30;;;;;;;25.27;14.70;;;3.10;99.90;;;;;;5074201;28;20217;-66
2023/12/15 00:32:56;;;;;;;23.23;14.50;;;3.10;99.90;;;;;;5071815;28;20179;-69
2023/12/15 00:35:21;;;;;;;20.10;13.30;;;3.20;99.90;;;;;;5073744;28;20194;-68
2023/12/15 00:37:47;;;;;;;23.93;15.33;;;3.20;99.90;;;;;;5050064;28;20207;-69
2023/12/15 00:40:13;;;;;;;18.00;12.70;;;3.20;99.90;;;;;;5033436;28;20280;-66
2023/12/15 00:42:38;;;;;;;25.77;14.43;;;3.20;99.90;;;;;;5034472;28;20197;-70
2023/12/15 00:45:04;;;;;;;24.30;13.30;;;3.20;99.90;;;;;;5033251;28;20191;-67
2023/12/15 00:47:30;;;;;;;20.93;12.50;;;3.20;99.90;;;;;;5033910;28;20196;-67
2023/12/15 00:49:57;;;;;;;19.63;12.50;;;3.20;99.90;;;;;;5067314;28;20422;-68
2023/12/15 00:52:23;;;;;;;23.70;14.10;;;3.20;99.90;;;;;;5073423;28;20683;-67
2023/12/15 00:54:48;;;;;;;32.03;15.50;;;3.20;99.90;;;;;;5073345;28;20476;-67
2023/12/15 00:57:14;;;;;;;27.33;15.70;;;3.20;99.90;;;;;;5057903;28;20555;-70
2023/12/15 00:59:39;;;;;;;23.53;15.47;;;3.20;99.90;;;;;;5053505;28;20656;-73
2023/12/15 01:02:05;;;;;;;18.67;13.23;;;3.20;99.90;;;;;;5053862;28;20168;-71
2023/12/15 01:04:33;;;;;;;22.57;13.30;;;3.20;99.90;;;;;;5068801;28;20209;-73
2023/12/15 01:06:58;;;;;;;18.20;14.03;;;3.20;99.90;;;;;;5073787;28;20543;-69
2023/12/15 01:09:25;;;;;;;25.00;14.00;;;3.20;99.90;;;;;;5073504;28;20488;-66
2023/12/15 01:11:50;;;;;;;27.43;16.00;;;3.20;99.90;;;;;;5062747;28;20171;-67
2023/12/15 01:14:16;;;;;;;21.93;13.17;;;3.20;99.90;;;;;;5053277;28;20488;-69
2023/12/15 01:16:49;;;;;;;23.17;15.50;;;3.20;99.90;;;;;;5052600;28;20199;-68
2023/12/15 01:19:16;;;;;;;28.83;13.57;;;3.20;99.90;;;;;;5069635;28;20174;-72
2023/12/15 01:21:42;;;;;;;22.27;15.47;;;3.20;99.90;;;;;;5072568;28;20482;-72
2023/12/15 01:24:08;;;;;;;22.23;15.90;;;3.20;99.90;;;;;;5071623;28;20782;-71
2023/12/15 01:26:33;;;;;;;24.37;14.50;;;3.30;99.90;;;;;;5072554;28;20409;-72
2023/12/15 01:28:59;;;;;;;40.43;15.70;;;3.20;99.90;;;;;;5059935;28;20210;-71
2023/12/15 01:31:25;;;;;;;22.43;13.73;;;3.30;99.90;;;;;;5053105;28;20171;-69
2023/12/15 01:33:50;;;;;;;21.37;13.23;;;3.20;99.90;;;;;;5052059;28;20191;-67
2023/12/15 01:36:17;;;;;;;25.30;15.70;;;3.20;99.90;;;;;;5052452;28;20202;-70
2023/12/15 01:38:43;;;;;;;22.87;15.90;;;3.20;99.90;;;;;;5053314;28;20270;-71
2023/12/15 01:41:10;;;;;;;25.10;16.27;;;3.30;99.90;;;;;;5053141;28;20397;-67
2023/12/15 01:43:35;;;;;;;25.60;15.10;;;3.30;99.90;;;;;;5052416;28;20413;-67
2023/12/15 01:46:01;;;;;;;23.90;14.97;;;3.30;99.90;;;;;;5052261;28;20429;-67
2023/12/15 01:48:28;;;;;;;26.20;15.70;;;3.20;99.90;;;;;;5051401;28;20198;-71
2023/12/15 01:50:54;;;;;;;23.50;13.60;;;3.30;99.90;;;;;;5057110;28;20179;-71
2023/12/15 01:53:20;;;;;;;28.77;17.40;;;3.30;99.90;;;;;;5056347;28;20811;-70
2023/12/15 01:55:46;;;;;;;27.63;16.67;;;3.30;99.90;;;;;;5055613;28;20186;-70
2023/12/15 01:58:12;;;;;;;25.43;13.83;;;3.30;99.90;;;;;;5077781;28;20428;-66
2023/12/15 02:00:38;;;;;;;26.93;15.67;;;3.40;99.90;;;;;;5058965;28;20493;-69
2023/12/15 02:03:03;;;;;;;26.00;15.10;;;3.30;99.90;;;;;;5057312;28;20160;-67
2023/12/15 02:05:29;;;;;;;21.60;14.77;;;3.40;99.90;;;;;;5076542;28;20257;-66
2023/12/15 02:07:55;;;;;;;27.77;16.07;;;3.40;99.90;;;;;;5075305;28;20186;-72
2023/12/15 02:10:21;;;;;;;26.40;15.23;;;3.50;99.90;;;;;;5077006;28;20171;-70
2023/12/15 02:12:46;;;;;;;25.30;16.03;;;3.40;99.90;;;;;;5075204;28;20186;-70
2023/12/15 02:15:12;;;;;;;29.80;15.73;;;3.50;99.90;;;;;;5059719;28;20191;-71
2023/12/15 02:17:38;;;;;;;31.90;16.97;;;3.50;99.90;;;;;;5056566;28;20195;-69
2023/12/15 02:20:06;;;;;;;31.80;16.57;;;3.50;99.90;;;;;;5056459;28;20174;-71
2023/12/15 02:22:32;;;;;;;28.60;17.40;;;3.50;99.90;;;;;;5053198;28;20422;-70
2023/12/15 02:24:58;;;;;;;33.27;17.03;;;3.50;1.00;;;;;;5071465;28;20952;-69
2023/12/15 02:27:24;;;;;;;29.00;16.70;;;3.50;1.00;;;;;;5065819;28;20281;-66
2023/12/15 02:29:49;;;;;;;23.40;14.23;;;3.50;1.00;;;;;;5056921;28;20172;-67
2023/12/15 02:32:15;;;;;;;27.27;16.00;;;3.50;1.00;;;;;;5047417;28;20260;-71
2023/12/15 02:34:41;;;;;;;25.83;15.10;;;3.60;1.00;;;;;;5056813;28;20588;-68
2023/12/15 02:37:06;;;;;;;27.27;17.30;;;3.60;1.00;;;;;;5056195;28;20188;-71
2023/12/15 02:39:32;;;;;;;28.93;16.10;;;3.60;1.00;;;;;;5056722;28;20194;-68
2023/12/15 02:41:58;;;;;;;24.77;14.63;;;3.70;1.00;;;;;;5056171;28;20167;-71
2023/12/15 02:44:24;;;;;;;24.07;15.00;;;3.70;1.00;;;;;;5055995;28;20590;-68
2023/12/15 02:46:49;;;;;;;28.43;15.47;;;3.80;1.00;;;;;;5054668;28;20700;-68
2023/12/15 02:49:18;;;;;;;29.00;15.90;;;3.70;1.00;;;;;;5062264;28;20174;-71
2023/12/15 02:51:44;;;;;;;25.23;14.60;;;3.70;1.00;;;;;;5076386;28;20255;-67
2023/12/15 02:54:09;;;;;;;31.00;15.93;;;3.70;1.00;;;;;;5075723;28;20491;-66
2023/12/15 02:56:35;;;;;;;31.17;15.57;;;3.70;1.00;;;;;;5066553;28;20465;-72
2023/12/15 02:59:01;;;;;;;20.13;13.87;;;3.70;1.00;;;;;;5055833;28;20167;-67
2023/12/15 03:01:27;;;;;;;28.37;17.23;;;3.70;1.00;;;;;;5059650;28;20180;-72
2023/12/15 03:03:52;;;;;;;25.77;14.40;;;3.70;1.00;;;;;;5059470;28;20754;-71
2023/12/15 03:06:18;;;;;;;26.80;14.93;;;3.70;1.00;;;;;;5075410;28;20188;-67
2023/12/15 03:08:44;;;;;;;28.50;14.87;;;3.70;1.00;;;;;;5076079;28;20663;-67
2023/12/15 03:11:10;;;;;;;28.93;16.83;;;3.70;1.00;;;;;;5074383;28;20453;-67
2023/12/15 03:13:38;;;;;;;28.43;16.53;;;3.70;1.00;;;;;;5075954;28;20655;-71
2023/12/15 03:16:10;;;;;;;24.80;13.70;;;3.80;1.00;;;;;;5071703;28;20248;-67
2023/12/15 03:18:36;;;;;;;29.73;16.33;;;3.80;1.00;;;;;;5074622;28;21016;-70
2023/12/15 03:21:02;;;;;;;23.93;14.40;;;3.80;1.00;;;;;;5068619;28;20401;-69
2023/12/15 03:23:28;;;;;;;33.07;16.87;;;3.80;1.00;;;;;;5064154;28;20480;-70
2023/12/15 03:25:54;;;;;;;24.27;16.17;;;3.80;1.00;;;;;;5074930;28;20451;-71
2023/12/15 03:28:19;;;;;;;33.77;18.07;;;3.70;1.00;;;;;;5074308;28;20551;-67
2023/12/15 03:30:45;;;;;;;25.50;16.10;;;3.80;1.00;;;;;;5062809;28;20176;-72
2023/12/15 03:33:11;;;;;;;31.70;16.47;;;3.80;1.00;;;;;;5055161;28;20185;-67
2023/12/15 03:35:36;;;;;;;35.50;16.60;;;3.80;1.00;;;;;;5071809;28;20280;-70
2023/12/15 03:38:04;;;;;;;23.80;15.70;;;3.80;1.00;;;;;;5074033;28;20191;-72
2023/12/15 03:40:30;;;;;;;29.70;15.03;;;3.80;1.00;;;;;;5075432;28;20167;-70
2023/12/15 03:42:55;;;;;;;29.70;16.30;;;3.80;1.00;;;;;;5074122;28;20412;-66
2023/12/15 03:45:21;;;;;;;22.13;13.73;;;3.70;1.00;;;;;;5067149;28;20256;-69
2023/12/15 03:47:47;;;;;;;24.57;15.40;;;3.80;1.00;;;;;;5075217;28;20186;-68
2023/12/15 03:50:12;;;;;;;24.50;13.90;;;3.80;1.00;;;;;;5072632;28;20211;-66
2023/12/15 03:52:38;;;;;;;27.67;15.90;;;3.80;1.00;;;;;;5075381;28;20225;-71
2023/12/15 03:55:04;;;;;;;28.90;15.40;;;3.80;1.00;;;;;;5052858;28;20199;-66
2023/12/15 03:57:30;;;;;;;31.83;16.30;;;3.80;1.00;;;;;;5060319;28;20227;-71
2023/12/15 03:59:55;;;;;;;28.57;15.90;;;3.80;1.00;;;;;;5053524;28;20421;-70
2023/12/15 04:02:21;;;;;;;24.07;15.90;;;3.80;1.00;;;;;;5070984;28;20175;-69
2023/12/15 04:04:47;;;;;;;35.83;17.00;;;3.90;1.00;;;;;;5070468;28;20188;-68
2023/12/15 04:07:13;;;;;;;28.67;17.00;;;3.80;1.00;;;;;;5072843;28;20445;-71
2023/12/15 04:09:38;;;;;;;29.60;16.30;;;3.90;1.00;;;;;;5074688;28;20504;-67
2023/12/15 04:12:05;;;;;;;25.50;16.70;;;3.90;1.00;;;;;;5072057;28;20163;-71
2023/12/15 04:14:33;;;;;;;30.83;17.43;;;3.90;1.00;;;;;;5054261;28;20243;-74
2023/12/15 04:16:59;;;;;;;34.80;17.87;;;4.00;1.00;;;;;;5065775;28;20445;-67
2023/12/15 04:19:24;;;;;;;31.90;17.87;;;4.00;1.00;;;;;;5073008;28;20398;-68
2023/12/15 04:21:50;;;;;;;28.23;16.03;;;4.00;1.00;;;;;;5074691;28;20633;-67
2023/12/15 04:24:16;;;;;;;27.93;15.57;;;4.10;1.00;;;;;;5073475;28;20228;-70
2023/12/15 04:26:42;;;;;;;25.33;17.33;;;4.00;1.00;;;;;;5060002;28;20183;-68
2023/12/15 04:29:08;;;;;;;34.20;20.17;;;4.00;1.00;;;;;;5054658;28;20483;-67
2023/12/15 04:31:33;;;;;;;25.93;16.77;;;4.20;1.00;;;;;;5054215;28;20176;-67
2023/12/15 04:33:59;;;;;;;28.73;15.63;;;4.20;1.00;;;;;;5053686;28;20230;-66
2023/12/15 04:36:26;;;;;;;32.63;18.27;;;4.20;1.00;;;;;;5074537;28;20243;-67
2023/12/15 04:38:52;;;;;;;26.53;17.73;;;4.20;1.00;;;;;;5063824;28;20419;-70
2023/12/15 04:41:20;;;;;;;26.97;15.90;;;4.20;1.00;;;;;;5067146;28;20429;-71
2023/12/15 04:43:46;;;;;;;33.37;17.80;;;4.20;1.00;;;;;;5074274;28;20403;-69
2023/12/15 04:46:11;;;;;;;33.33;16.80;;;4.20;1.00;;;;;;5072972;28;20419;-71
2023/12/15 04:48:38;;;;;;;29.50;16.87;;;4.30;1.00;;;;;;5070733;28;20460;-71
2023/12/15 04:51:04;;;;;;;35.93;18.30;;;4.30;1.00;;;;;;5055077;28;20193;-71
2023/12/15 04:53:30;;;;;;;27.43;15.83;;;4.40;1.00;;;;;;5057873;28;20902;-70
2023/12/15 04:55:55;;;;;;;32.97;17.30;;;4.40;1.00;;;;;;5071820;28;20471;-67
2023/12/15 04:58:21;;;;;;;33.27;18.30;;;4.40;1.00;;;;;;5074720;28;20188;-67
2023/12/15 05:00:47;;;;;;;30.83;16.53;;;4.50;1.00;;;;;;5073052;28;20523;-67
2023/12/15 05:03:12;;;;;;;31.70;17.97;;;4.40;1.00;;;;;;5074028;28;20177;-67
2023/12/15 05:05:38;;;;;;;26.60;16.33;;;4.40;1.00;;;;;;5052964;28;20175;-70
2023/12/15 05:08:04;;;;;;;25.00;17.40;;;4.50;1.00;;;;;;5051815;28;20202;-71
2023/12/15 05:10:29;;;;;;;32.70;17.50;;;4.50;1.00;;;;;;5071619;28;20199;-67
2023/12/15 05:12:55;;;;;;;26.07;15.20;;;4.50;1.00;;;;;;5073910;28;20165;-71
2023/12/15 05:15:21;;;;;;;32.60;17.20;;;4.60;1.00;;;;;;5072935;28;20249;-67
2023/12/15 05:17:46;;;;;;;32.07;18.00;;;4.50;1.00;;;;;;5073731;28;20229;-68
2023/12/15 05:20:12;;;;;;;27.20;16.40;;;4.50;1.00;;;;;;5063531;28;20637;-70
2023/12/15 05:22:38;;;;;;;29.17;17.37;;;4.50;1.00;;;;;;5053136;28;20181;-67
2023/12/15 05:25:04;;;;;;;28.83;16.83;;;4.60;1.00;;;;;;5052627;28;20180;-70
2023/12/15 05:27:29;;;;;;;27.60;16.20;;;4.60;1.00;;;;;;5052581;28;20201;-67
2023/12/15 05:29:55;;;;;;;29.17;17.93;;;4.70;1.00;;;;;;5073319;28;20410;-70
2023/12/15 05:32:21;;;;;;;31.60;17.33;;;4.60;1.00;;;;;;5064507;28;20179;-71
2023/12/15 05:34:46;;;;;;;35.43;17.43;;;4.60;1.00;;;;;;5063804;28;20531;-68
2023/12/15 05:37:13;;;;;;;29.30;16.27;;;4.70;1.00;;;;;;5073722;28;20180;-67
2023/12/15 05:39:42;;;;;;;29.13;17.40;;;4.60;1.00;;;;;;5073491;28;20171;-67
2023/12/15 05:42:08;;;;;;;33.63;17.87;;;4.70;1.00;;;;;;5073190;28;20393;-67
2023/12/15 05:44:33;;;;;;;33.20;18.90;;;4.70;1.00;;;;;;5072446;28;20396;-71
2023/12/15 05:46:59;;;;;;;31.40;17.07;;;4.70;1.00;;;;;;5065909;28;20200;-71
2023/12/15 05:49:25;;;;;;;31.70;17.40;;;4.80;1.00;;;;;;5053431;28;20635;-67
2023/12/15 05:51:51;;;;;;;36.40;18.50;;;4.80;1.00;;;;;;5053407;28;20165;-67
2023/12/15 05:54:16;;;;;;;35.90;19.10;;;4.80;1.00;;;;;;5052333;28;20166;-68
2023/12/15 05:56:42;;;;;;;32.77;19.53;;;4.80;1.00;;;;;;5052539;28;20543;-67
2023/12/15 05:59:08;;;;;;;32.07;18.80;;;4.90;1.00;;;;;;5053996;28;20672;-67
2023/12/15 06:01:34;;;;;;;31.43;17.77;;;4.90;1.00;;;;;;5054100;28;20470;-68
2023/12/15 06:04:00;;;;;;;35.83;18.60;;;4.90;1.00;;;;;;5052878;28;20574;-70
2023/12/15 06:06:25;;;;;;;35.80;19.03;;;4.90;1.00;;;;;;5066717;28;20197;-72
2023/12/15 06:08:51;;;;;;;39.70;18.77;;;4.80;1.00;;;;;;5073136;28;20611;-67
2023/12/15 06:11:17;;;;;;;35.37;19.10;;;4.90;1.00;;;;;;5072795;28;20750;-70
2023/12/15 06:13:43;;;;;;;38.60;19.03;;;4.90;1.00;;;;;;5070672;28;20212;-68
2023/12/15 06:16:20;;;;;;;31.30;18.57;;;5.00;1.00;;;;;;5061315;28;20206;-71
2023/12/15 06:18:46;;;;;;;30.33;16.40;;;5.00;1.00;;;;;;5052658;28;20825;-67
2023/12/15 06:21:26;;;;;;;37.87;20.30;;;5.00;1.00;;;;;;5069061;28;20422;-68
2023/12/15 06:23:54;;;;;;;40.40;17.43;;;5.00;1.00;;;;;;5072915;28;20408;-67
2023/12/15 06:26:26;;;;;;;33.13;16.90;;;5.00;1.00;;;;;;5072235;28;20387;-71
2023/12/15 06:28:55;;;;;;;30.80;16.20;;;5.00;1.00;;;;;;5055294;28;20448;-67
2023/12/15 06:31:21;;;;;;;42.17;18.50;;;5.10;1.00;;;;;;5053065;28;20402;-68
2023/12/15 06:33:47;;;;;;;40.73;18.47;;;5.00;1.00;;;;;;5056947;28;20439;-71
2023/12/15 06:36:13;;;;;;;35.27;17.83;;;5.10;1.00;;;;;;5057250;28;20458;-69
2023/12/15 06:38:44;;;;;;;40.13;18.27;;;5.10;1.00;;;;;;5056388;28;20425;-67
2023/12/15 06:41:11;;;;;;;44.90;18.23;;;5.10;1.00;;;;;;5056574;28;20408;-68
2023/12/15 06:43:44;;;;;;;35.37;19.90;;;5.10;1.00;;;;;;5052056;28;20403;-66
2023/12/15 06:46:11;;;;;;;52.30;19.30;;;5.10;1.00;;;;;;5035550;28;20413;-73
2023/12/15 06:48:37;;;;;;;36.87;17.87;;;5.10;1.00;;;;;;5068352;28;20452;-72
2023/12/15 06:51:04;;;;;;;34.03;18.03;;;5.10;1.00;;;;;;5075410;28;20438;-67
2023/12/15 06:53:30;;;;;;;33.33;16.60;;;5.10;1.00;;;;;;5075919;28;20211;-67
2023/12/15 06:55:56;;;;;;;36.27;17.50;;;5.10;1.00;;;;;;5061492;28;20861;-70
2023/12/15 06:58:21;;;;;;;47.43;19.13;;;5.10;1.00;;;;;;5054461;28;20221;-71
2023/12/15 07:00:47;;;;;;;38.27;18.57;;;5.10;1.00;;;;;;5056816;28;20627;-69
2023/12/15 07:03:13;;;;;;;39.67;17.33;;;5.10;1.00;;;;;;5062718;28;20179;-67
2023/12/15 07:05:38;;;;;;;35.73;19.10;;;5.20;1.00;;;;;;5063195;28;20539;-67
2023/12/15 07:08:04;;;;;;;40.87;21.17;;;5.20;1.00;;;;;;5074010;28;20217;-71
2023/12/15 07:10:30;;;;;;;38.40;18.57;;;5.30;1.00;;;;;;5075667;28;20633;-73
2023/12/15 07:12:56;;;;;;;43.87;19.77;;;5.30;1.00;;;;;;5070420;28;20435;-71
2023/12/15 07:15:22;;;;;;;45.70;17.73;;;5.20;1.00;;;;;;5068904;28;20464;-70
2023/12/15 07:17:48;;;;;;;38.23;19.03;;;5.30;1.00;;;;;;5069582;28;20463;-69
2023/12/15 07:20:14;;;;;;;45.43;20.90;;;5.30;1.00;;;;;;5074575;28;20500;-71
2023/12/15 07:22:39;;;;;;;38.33;17.63;;;5.40;1.00;;;;;;5075750;28;20264;-71
2023/12/15 07:25:05;;;;;;;37.00;19.10;;;5.40;1.00;;;;;;5072367;28;20224;-67
2023/12/15 07:27:34;;;;;;;36.00;16.87;;;5.30;1.00;;;;;;5075292;28;20218;-70
2023/12/15 07:30:00;;;;;;;41.50;20.90;;;5.30;1.00;;;;;;5061359;28;20416;-71
2023/12/15 07:32:25;;;;;;;45.37;21.03;;;5.30;1.00;;;;;;5053793;28;20456;-71
2023/12/15 07:34:51;;;;;;;43.07;21.63;;;5.30;1.00;;;;;;5069707;28;20186;-68
2023/12/15 07:37:16;;;;;;;41.30;19.00;;;5.40;1.00;;;;;;5075329;28;20717;-69
2023/12/15 07:39:42;;;;;;;43.13;18.53;;;5.30;1.00;;;;;;5075255;28;20295;-71
2023/12/15 07:42:08;;;;;;;41.77;19.57;;;5.40;1.00;;;;;;5057213;28;20245;-68
2023/12/15 07:44:34;;;;;;;39.20;19.73;;;5.50;1.00;;;;;;5053780;28;20186;-73
2023/12/15 07:46:59;;;;;;;42.50;18.80;;;5.50;1.00;;;;;;5053528;28;21023;-71
2023/12/15 07:49:25;;;;;;;46.50;19.27;;;5.50;1.00;;;;;;5067490;28;20546;-68
2023/12/15 07:51:51;;;;;;;43.87;21.80;;;5.60;1.00;;;;;;5063504;28;20555;-71
2023/12/15 07:54:20;;;;;;;41.00;20.00;;;5.60;1.00;;;;;;5068007;28;20201;-70
2023/12/15 07:56:46;;;;;;;41.43;16.87;;;5.70;1.00;;;;;;5072677;28;20992;-68
2023/12/15 07:59:12;;;;;;;45.50;19.47;;;5.60;1.00;;;;;;5074848;28;20405;-71
2023/12/15 08:01:38;;;;;;;40.40;20.30;;;5.60;1.00;;;;;;5067988;28;20170;-69
2023/12/15 08:04:05;;;;;;;48.67;20.67;;;5.60;1.00;;;;;;5053192;28;20933;-71
2023/12/15 08:06:31;;;;;;;48.67;20.70;;;5.60;1.00;;;;;;5053030;28;20186;-69
2023/12/15 08:08:57;;;;;;;40.20;20.70;;;5.70;1.00;;;;;;5053040;28;20829;-69
2023/12/15 08:11:22;;;;;;;45.17;20.07;;;5.70;1.00;;;;;;5059400;28;20182;-69
2023/12/15 08:13:48;;;;;;;42.23;20.60;;;5.70;1.00;;;;;;5051106;28;20178;-71
2023/12/15 08:16:14;;;;;;;50.87;20.30;;;5.70;1.00;;;;;;5059451;28;20202;-70
2023/12/15 08:18:41;;;;;;;55.07;20.03;;;5.70;1.00;;;;;;5070848;28;20583;-71
2023/12/15 08:21:07;;;;;;;38.07;18.40;;;5.70;1.00;;;;;;5057609;28;20436;-71
2023/12/15 08:23:33;;;;;;;47.47;21.13;;;5.70;1.00;;;;;;5047286;28;20797;-70
2023/12/15 08:25:58;;;;;;;43.27;20.43;;;5.70;1.00;;;;;;5046981;28;20456;-67
2023/12/15 08:28:24;;;;;;;42.00;19.27;;;5.70;1.00;;;;;;5034452;28;20273;-71
2023/12/15 08:30:50;;;;;;;43.47;20.40;;;5.70;1.00;;;;;;5059345;28;20178;-68
2023/12/15 08:33:16;;;;;;;38.07;18.87;;;5.70;1.00;;;;;;5072409;28;20175;-72
2023/12/15 08:35:42;;;;;;;46.67;20.50;;;5.70;1.00;;;;;;5053167;28;20479;-69
2023/12/15 08:38:09;;;;;;;33.10;18.07;;;5.70;1.00;;;;;;5054177;28;20914;-67
2023/12/15 08:40:34;;;;;;;42.00;20.00;;;5.70;1.00;;;;;;5054133;28;20175;-67
2023/12/15 08:43:00;;;;;;;43.47;20.50;;;5.60;1.00;;;;;;5046641;28;20807;-69
2023/12/15 08:45:26;;;;;;;38.60;20.70;;;5.70;1.00;;;;;;5031938;28;20178;-71
2023/12/15 08:47:52;;;;;;;49.73;20.73;;;5.80;1.00;;;;;;5033853;28;20200;-69
2023/12/15 08:50:17;;;;;;;39.33;19.17;;;5.80;1.00;;;;;;5049167;28;20179;-71
2023/12/15 08:52:43;;;;;;;44.97;18.23;;;5.90;1.00;;;;;;5053556;28;20163;-71
2023/12/15 08:55:10;;;;;;;47.43;18.63;;;5.90;1.00;;;;;;5052817;28;20187;-67
2023/12/15 08:57:36;;;;;;;38.13;19.20;;;5.90;1.00;;;;;;5052552;28;20806;-72
2023/12/15 09:00:03;;;;;;;33.03;16.73;;;5.90;1.00;;;;;;5074224;28;20409;-68
2023/12/15 09:02:29;;;;;;;47.33;19.40;;;5.90;1.00;;;;;;5073905;28;20919;-70
2023/12/15 09:04:55;;;;;;;33.40;16.90;;;6.00;1.00;;;;;;5062969;28;20437;-71
2023/12/15 09:07:21;;;;;;;39.50;19.00;;;6.10;1.00;;;;;;5053949;28;20187;-71
2023/12/15 09:09:46;;;;;;;40.60;18.97;;;6.00;1.00;;;;;;5053425;28;20499;-69
2023/12/15 09:12:12;;;;;;;42.53;18.73;;;6.00;1.00;;;;;;5052743;28;20583;-71
2023/12/15 09:14:38;;;;;;;42.27;20.10;;;6.00;1.00;;;;;;5052908;28;20574;-70
2023/12/15 09:17:05;;;;;;;41.13;18.80;;;6.10;1.00;;;;;;5053553;28;20457;-71
2023/12/15 09:19:31;;;;;;;40.73;17.63;;;6.10;1.00;;;;;;5054181;28;20448;-70
2023/12/15 09:21:57;;;;;;;45.07;17.90;;;6.10;1.00;;;;;;5053769;28;20925;-68
2023/12/15 09:24:23;;;;;;;37.87;18.47;;;6.10;1.00;;;;;;5053250;28;20414;-74
2023/12/15 09:26:49;;;;;;;50.63;19.50;;;6.10;1.00;;;;;;5052820;28;20182;-71
2023/12/15 09:29:15;;;;;;;39.63;18.53;;;6.20;1.00;;;;;;5053407;28;20178;-69
2023/12/15 09:31:42;;;;;;;42.73;17.10;;;6.10;1.00;;;;;;5053650;28;20233;-67
2023/12/15 09:34:08;;;;;;;37.83;17.50;;;6.20;1.00;;;;;;5052228;28;21032;-68
2023/12/15 09:36:34;;;;;;;40.70;17.40;;;6.20;1.00;;;;;;5051458;28;20453;-71
2023/12/15 09:39:01;;;;;;;41.37;18.43;;;6.20;1.00;;;;;;5053529;28;20413;-68
2023/12/15 09:41:28;;;;;;;41.00;17.07;;;6.20;1.00;;;;;;5053562;28;20411;-69
2023/12/15 09:43:54;;;;;;;40.33;19.43;;;6.30;1.00;;;;;;5053416;28;20409;-70
2023/12/15 09:46:21;;;;;;;44.40;18.13;;;6.30;1.00;;;;;;5051137;28;20515;-67
2023/12/15 09:48:48;;;;;;;43.13;16.43;;;6.40;1.00;;;;;;5053770;28;20907;-68
2023/12/15 09:51:25;;;;;;;37.73;16.30;;;6.40;1.00;;;;;;5058238;28;20917;-76
2023/12/15 09:53:52;;;;;;;47.33;16.43;;;6.40;1.00;;;;;;5063030;28;20449;-73
2023/12/15 09:56:18;;;;;;;41.00;18.60;;;6.50;1.00;;;;;;5052743;28;20468;-73
2023/12/15 09:58:44;;;;;;;41.00;15.87;;;6.50;1.00;;;;;;5052248;28;20396;-69
2023/12/15 10:01:11;;;;;;;46.30;15.17;;;6.50;1.00;;;;;;5064374;28;20793;-71
2023/12/15 10:03:37;;;;;;;35.43;18.43;;;6.50;1.00;;;;;;5051811;28;20409;-69
2023/12/15 10:06:02;;;;;;;43.13;17.30;;;6.50;1.00;;;;;;5071803;28;21030;-68
2023/12/15 10:08:43;;;;;;;50.43;20.10;;;6.50;1.00;;;;;;5064967;28;20532;-70
2023/12/15 10:11:09;;;;;;;59.13;20.00;;;6.50;1.00;;;;;;5070622;28;20655;-70
2023/12/15 10:13:34;;;;;;;42.37;16.40;;;6.50;1.00;;;;;;5072817;28;20437;-70
2023/12/15 10:16:00;;;;;;;46.00;18.43;;;6.50;1.00;;;;;;5070061;28;20670;-68
2023/12/15 10:18:26;;;;;;;40.30;18.90;;;6.60;1.00;;;;;;5061366;28;20191;-68
2023/12/15 10:20:55;;;;;;;44.83;20.23;;;6.60;1.00;;;;;;5041948;28;20925;-68
2023/12/15 10:23:28;;;;;;;39.17;17.53;;;6.70;1.00;;;;;;5066301;28;20432;-69
2023/12/15 10:25:57;;;;;;;39.93;18.43;;;6.80;1.00;;;;;;5067387;28;20940;-69
2023/12/15 10:28:23;;;;;;;41.07;17.40;;;6.80;1.00;;;;;;5074355;28;20455;-70
2023/12/15 10:30:50;;;;;;;46.63;16.67;;;6.80;1.00;;;;;;5076830;28;20397;-72
2023/12/15 10:33:17;;;;;;;42.27;14.77;;;6.90;1.00;;;;;;5073763;28;20455;-71
2023/12/15 10:35:47;;;;;;;41.93;16.37;;;7.00;1.00;;;;;;5070592;28;20796;-72
2023/12/15 10:38:13;;;;;;;38.10;17.73;;;7.10;1.00;;;;;;5076073;28;20477;-67
2023/12/15 10:40:40;;;;;;;37.67;14.73;;;7.10;1.00;;;;;;5068286;28;20428;-68
2023/12/15 10:43:07;;;;;;;39.37;16.20;;;7.20;1.00;;;;;;5075383;28;20493;-71
2023/12/15 10:45:33;;;;;;;39.93;15.53;;;7.30;1.00;;;;;;5075996;28;20417;-68
2023/12/15 10:48:00;;;;;;;43.10;15.30;;;7.30;1.00;;;;;;5067669;28;20452;-68
2023/12/15 10:50:27;;;;;;;30.40;14.27;;;7.40;1.00;;;;;;5052612;28;20428;-71
2023/12/15 10:52:55;;;;;;;32.60;15.27;;;7.40;1.00;;;;;;5066825;28;20948;-70
2023/12/15 10:55:25;;;;;;;50.70;14.97;;;7.40;1.00;;;;;;5067007;28;20457;-71
2023/12/15 10:57:58;;;;;;;34.53;14.10;;;7.50;1.00;;;;;;5055251;28;20421;-72
2023/12/15 11:00:24;;;;;;;37.20;12.90;;;7.60;1.00;;;;;;5056109;28;20426;-69
2023/12/15 11:02:50;;;;;;;29.80;11.07;;;7.60;1.00;;;;;;5055294;28;20676;-69
2023/12/15 11:05:17;;;;;;;39.83;12.53;;;7.60;1.00;;;;;;5065668;28;20233;-70
2023/12/15 11:07:42;;;;;;;39.00;13.70;;;7.60;1.00;;;;;;5075774;28;20905;-68
2023/12/15 11:10:09;;;;;;;34.47;10.90;;;7.60;1.00;;;;;;5074875;28;20442;-67
2023/12/15 11:12:39;;;;;;;36.97;11.83;;;7.60;1.00;;;;;;5069947;28;20678;-73
2023/12/15 11:15:17;;;;;;;26.13;10.97;;;7.70;1.00;;;;;;5053795;28;20453;-72
2023/12/15 11:17:47;;;;;;;37.80;13.10;;;7.80;1.00;;;;;;5066900;28;20454;-71
2023/12/15 11:20:33;;;;;;;29.50;11.97;;;7.80;1.00;;;;;;5060833;28;20449;-71
2023/12/15 11:23:07;;;;;;;28.27;9.77;;;7.80;1.00;;;;;;5062317;28;20923;-72
2023/12/15 11:25:38;;;;;;;32.97;10.10;;;7.80;1.00;;;;;;5054432;28;20423;-73
2023/12/15 11:28:15;;;;;;;35.37;9.90;;;7.90;1.00;;;;;;5064521;28;20476;-72
2023/12/15 11:30:48;;;;;;;44.13;10.60;;;7.90;1.00;;;;;;5056884;28;20891;-71
2023/12/15 11:33:32;;;;;;;31.87;10.40;;;8.00;1.00;;;;;;5054102;28;20441;-72
2023/12/15 11:36:09;;;;;;;32.57;10.20;;;7.90;1.00;;;;;;5072935;28;20565;-69
2023/12/15 11:38:35;;;;;;;27.23;10.10;;;7.90;1.00;;;;;;5073271;28;20436;-72
2023/12/15 11:41:02;;;;;;;26.57;12.43;;;8.00;1.00;;;;;;5075393;28;20396;-69
2023/12/15 11:43:37;;;;;;;37.53;10.67;;;8.00;1.00;;;;;;5065963;28;20483;-69
2023/12/15 11:46:03;;;;;;;28.77;9.47;;;8.10;1.00;;;;;;5056145;28;20821;-73
2023/12/15 11:48:29;;;;;;;30.13;10.10;;;8.10;1.00;;;;;;5053753;28;20441;-71
2023/12/15 11:50:56;;;;;;;33.00;9.70;;;8.00;1.00;;;;;;5053110;28;20432;-73
2023/12/15 11:53:22;;;;;;;22.90;8.87;;;8.00;1.00;;;;;;5053948;28;20183;-71
2023/12/15 11:55:49;;;;;;;30.73;9.97;;;8.00;1.00;;;;;;5054495;28;20446;-71
2023/12/15 11:58:15;;;;;;;17.80;8.53;;;8.00;1.00;;;;;;5065799;28;20194;-71
2023/12/15 12:00:42;;;;;;;25.73;7.27;;;8.20;1.00;;;;;;5074845;28;20919;-69
2023/12/15 12:03:10;;;;;;;20.53;7.77;;;8.20;1.00;;;;;;5058203;28;20796;-71
2023/12/15 12:05:38;;;;;;;23.27;9.90;;;8.20;1.00;;;;;;5064734;28;20403;-71
2023/12/15 12:08:04;;;;;;;29.03;8.37;;;8.20;1.00;;;;;;5074845;28;20473;-69
2023/12/15 12:10:38;;;;;;;24.03;8.30;;;8.30;1.00;;;;;;5061375;28;20429;-71
2023/12/15 12:13:08;;;;;;;23.33;7.90;;;8.30;1.00;;;;;;5061473;28;20802;-73
2023/12/15 12:15:49;;;;;;;15.97;8.00;;;8.30;1.00;;;;;;5072267;28;20491;-69
2023/12/15 12:18:14;;;;;;;18.10;7.33;;;8.30;1.00;;;;;;5061421;28;20421;-70
2023/12/15 12:20:43;;;;;;;19.60;7.67;;;8.30;1.00;;;;;;5069889;28;20891;-69
2023/12/15 12:23:09;;;;;;;26.07;8.50;;;8.30;1.00;;;;;;5055109;28;20247;-69
2023/12/15 12:25:35;;;;;;;28.43;7.97;;;8.20;1.00;;;;;;5053600;28;20916;-72
2023/12/15 12:28:00;;;;;;;13.97;6.73;;;8.30;1.00;;;;;;5054136;28;20526;-72
2023/12/15 12:30:28;;;;;;;23.77;8.80;;;8.30;1.00;;;;;;5069552;28;20186;-72
2023/12/15 12:32:54;;;;;;;23.23;6.60;;;8.20;1.00;;;;;;5069076;28;20187;-74
2023/12/15 12:35:19;;;;;;;27.77;7.20;;;8.20;1.00;;;;;;5070080;28;20432;-73
2023/12/15 12:37:45;;;;;;;23.90;6.47;;;8.20;1.00;;;;;;5065012;28;20200;-69
2023/12/15 12:40:11;;;;;;;25.50;7.80;;;8.30;1.00;;;;;;5059481;28;20535;-69
2023/12/15 12:42:37;;;;;;;17.63;5.93;;;8.30;1.00;;;;;;5055001;28;20216;-69